Miniplon — FIDV — position and weather

sailwx.info

Track history (hours):
 
Tides and Currents Weather Stations Pressure Air Temp Water Temp Dewpoint Dewpoint Depression Visibility Wind Speed Wind Dir Waves Ship Positions

Miniplon

Last reported at 2015-Jan-26 23:07 UTC. Time now 2015-Jan-27 08:25 UTC.
Position N 46°39' W 002°04'.

Length 22 m.

Type: SAR. MMSI: 228024600.

Date/timePositionNaut miles runAvg speedWind from/ knotsBaromVisibWave heightAir tempDewpointWater temp
2015-Jan-26 23:07N 46°39' W 002°04'5 8.7
2015-Jan-26 22:33N 46°36' W 001°60'9 8.6
2015-Jan-26 21:33N 46°29' W 001°52'3 3.0
2015-Jan-26 20:33N 46°30' W 001°47'0 0.0
2015-Jan-26 19:33N 46°30' W 001°47'0 0.0
2015-Jan-26 18:33N 46°30' W 001°47'0 0.0
2015-Jan-26 17:33N 46°30' W 001°47'0 0.0
2015-Jan-26 16:33N 46°30' W 001°47'0 0.0
2015-Jan-26 15:33N 46°30' W 001°47'0 0.0
2015-Jan-26 14:33N 46°30' W 001°47'0 0.0
2015-Jan-26 13:30N 46°30' W 001°47'0 0.0
2015-Jan-26 12:33N 46°30' W 001°47'0 0.0
2015-Jan-26 11:33N 46°30' W 001°47'0 0.0
2015-Jan-26 10:33N 46°30' W 001°47'0 0.0
2015-Jan-26 09:33N 46°30' W 001°47'0 0.0
2015-Jan-26 08:33N 46°30' W 001°47'0 0.0
2015-Jan-26 07:33N 46°30' W 001°47'0 0.0
2015-Jan-26 06:33N 46°30' W 001°47'0 0.0
2015-Jan-26 05:33N 46°30' W 001°47'0 0.0
2015-Jan-26 04:33N 46°30' W 001°47'0 0.0
2015-Jan-26 03:33N 46°30' W 001°47'0 0.0
2015-Jan-26 02:34N 46°30' W 001°47'6 6.1
2015-Jan-26 01:34N 46°32' W 001°55'90 9.0
2015-Jan-25 15:33N 47°41' W 003°22'87 4.8
2015-Jan-24 21:33N 46°34' W 002°00'9 9.1
2015-Jan-24 20:32N 46°29' W 001°50'2 2.2
2015-Jan-24 19:33N 46°30' W 001°47'0 0.0
2015-Jan-24 18:33N 46°30' W 001°47'0 0.0
2015-Jan-24 17:33N 46°30' W 001°47'0 0.0
2015-Jan-24 16:33N 46°30' W 001°47'0 0.0
2015-Jan-24 15:33N 46°30' W 001°47'0 0.0
2015-Jan-24 14:33N 46°30' W 001°47'0 0.0
2015-Jan-24 13:33N 46°30' W 001°47'0 0.0
2015-Jan-24 12:33N 46°30' W 001°47'0 0.0
2015-Jan-24 11:33N 46°30' W 001°47'0 0.0
2015-Jan-24 10:33N 46°30' W 001°47'0 0.0
2015-Jan-24 09:33N 46°30' W 001°47'0 0.0
2015-Jan-24 08:33N 46°30' W 001°47'0 0.0
2015-Jan-24 07:33N 46°30' W 001°47'0 0.0
2015-Jan-24 06:33N 46°30' W 001°47'0 0.0
2015-Jan-24 05:33N 46°30' W 001°47'0 0.0
2015-Jan-24 04:33N 46°30' W 001°47'0 0.0
2015-Jan-24 03:33N 46°30' W 001°47'0 0.0
2015-Jan-24 02:33N 46°30' W 001°47'0 0.0
2015-Jan-24 01:30N 46°30' W 001°47'0 0.0
2015-Jan-24 00:33N 46°30' W 001°47'0 0.0
2015-Jan-23 23:33N 46°30' W 001°47'0 0.0
2015-Jan-23 22:33N 46°30' W 001°47'0 0.0
2015-Jan-23 21:33N 46°30' W 001°47'0 0.0
2015-Jan-23 20:33N 46°30' W 001°47'0 0.0
2015-Jan-23 19:33N 46°30' W 001°47'0 0.0
2015-Jan-23 18:33N 46°30' W 001°47'0 0.0
2015-Jan-23 17:33N 46°30' W 001°47'0 0.0
2015-Jan-23 16:30N 46°30' W 001°47'0 0.0
2015-Jan-23 15:33N 46°30' W 001°47'0 0.0
2015-Jan-23 14:33N 46°30' W 001°47'0 0.0
2015-Jan-23 13:33N 46°30' W 001°47'0 0.0
2015-Jan-23 12:33N 46°30' W 001°47'0 0.0
2015-Jan-23 11:33N 46°30' W 001°47'0 0.0
2015-Jan-23 10:33N 46°30' W 001°47'0 0.0
2015-Jan-23 09:33N 46°30' W 001°47'0 0.0
2015-Jan-23 08:33N 46°30' W 001°47'0 0.0
2015-Jan-23 07:33N 46°30' W 001°47'0 0.0
2015-Jan-23 06:33N 46°30' W 001°47'0 0.0
2015-Jan-23 05:33N 46°30' W 001°47'0 0.0
2015-Jan-23 04:33N 46°30' W 001°47'0 0.0
2015-Jan-23 03:27N 46°30' W 001°47'0 0.0
2015-Jan-23 02:33N 46°30' W 001°47'0 0.0
2015-Jan-23 01:33N 46°30' W 001°47'0 0.0
2015-Jan-23 00:33N 46°30' W 001°47'0 0.0
2015-Jan-22 23:33N 46°30' W 001°47'0 0.0
2015-Jan-22 22:33N 46°30' W 001°47'0 0.0
2015-Jan-22 21:33N 46°30' W 001°47'0 0.0
2015-Jan-22 20:33N 46°30' W 001°47'0 0.0
2015-Jan-22 19:33N 46°30' W 001°47'0 0.0
2015-Jan-22 18:33N 46°30' W 001°47'0 0.0
2015-Jan-22 17:33N 46°30' W 001°47'0 0.0
2015-Jan-22 16:33N 46°30' W 001°47'0 0.0
2015-Jan-22 15:33N 46°30' W 001°47'0 0.0
2015-Jan-22 14:33N 46°30' W 001°47'0 0.0
2015-Jan-22 13:33N 46°30' W 001°47'0 0.0
2015-Jan-22 12:33N 46°30' W 001°47'0 0.0
2015-Jan-22 11:33N 46°30' W 001°47'0 0.0
2015-Jan-22 10:33N 46°30' W 001°47'0 0.0
2015-Jan-22 09:33N 46°30' W 001°47'0 0.0
2015-Jan-22 08:33N 46°30' W 001°47'0 0.0
2015-Jan-22 07:30N 46°30' W 001°47'0 0.0
2015-Jan-22 06:33N 46°30' W 001°47'0 0.0
2015-Jan-22 05:33N 46°30' W 001°47'0 0.0
2015-Jan-22 04:33N 46°30' W 001°47'0 0.0
2015-Jan-22 03:33N 46°30' W 001°47'0 0.0
2015-Jan-22 02:30N 46°30' W 001°47'0 0.0
2015-Jan-22 01:33N 46°30' W 001°47'0 0.0
2015-Jan-22 00:33N 46°30' W 001°47'0 0.0
2015-Jan-21 23:33N 46°30' W 001°47'0 0.0
2015-Jan-21 22:48N 46°30' W 001°47'0 0.0
2015-Jan-21 22:45N 46°30' W 001°47'0 0.0
2015-Jan-21 22:33N 46°30' W 001°47'0 0.0
2015-Jan-21 21:33N 46°30' W 001°47'0 0.0
2015-Jan-21 20:33N 46°30' W 001°47'0 0.0
2015-Jan-21 19:33N 46°30' W 001°47'0 0.0
2015-Jan-21 18:33N 46°30' W 001°47'0 0.0
2015-Jan-21 17:33N 46°30' W 001°47'8 0.2
2015-Jan-20 06:03N 46°22' W 001°43'5 9.5
2015-Jan-20 05:32N 46°27' W 001°46'  
Track history (hours):
 
Tides and Currents Weather Stations Pressure Air Temp Water Temp Dewpoint Dewpoint Depression Visibility Wind Speed Wind Dir Waves Ship Positions

Miniplon

Last reported at 2015-Jan-26 23:07 UTC. Time now 2015-Jan-27 08:25 UTC.
Position N 46°39' W 002°04'.

Length 22 m.

Type: SAR. MMSI: 228024600.

Date/timePositionNaut miles runAvg speedWind from/ knotsBaromVisibWave heightAir tempDewpointWater temp
2015-Jan-26 23:07N 46°39' W 002°04'5 8.7
2015-Jan-26 22:33N 46°36' W 001°60'9 8.6
2015-Jan-26 21:33N 46°29' W 001°52'3 3.0
2015-Jan-26 20:33N 46°30' W 001°47'0 0.0
2015-Jan-26 19:33N 46°30' W 001°47'0 0.0
2015-Jan-26 18:33N 46°30' W 001°47'0 0.0
2015-Jan-26 17:33N 46°30' W 001°47'0 0.0
2015-Jan-26 16:33N 46°30' W 001°47'0 0.0
2015-Jan-26 15:33N 46°30' W 001°47'0 0.0
2015-Jan-26 14:33N 46°30' W 001°47'0 0.0
2015-Jan-26 13:30N 46°30' W 001°47'0 0.0
2015-Jan-26 12:33N 46°30' W 001°47'0 0.0
2015-Jan-26 11:33N 46°30' W 001°47'0 0.0
2015-Jan-26 10:33N 46°30' W 001°47'0 0.0
2015-Jan-26 09:33N 46°30' W 001°47'0 0.0
2015-Jan-26 08:33N 46°30' W 001°47'0 0.0
2015-Jan-26 07:33N 46°30' W 001°47'0 0.0
2015-Jan-26 06:33N 46°30' W 001°47'0 0.0
2015-Jan-26 05:33N 46°30' W 001°47'0 0.0
2015-Jan-26 04:33N 46°30' W 001°47'0 0.0
2015-Jan-26 03:33N 46°30' W 001°47'0 0.0
2015-Jan-26 02:34N 46°30' W 001°47'6 6.1
2015-Jan-26 01:34N 46°32' W 001°55'90 9.0
2015-Jan-25 15:33N 47°41' W 003°22'87 4.8
2015-Jan-24 21:33N 46°34' W 002°00'9 9.1
2015-Jan-24 20:32N 46°29' W 001°50'2 2.2
2015-Jan-24 19:33N 46°30' W 001°47'0 0.0
2015-Jan-24 18:33N 46°30' W 001°47'0 0.0
2015-Jan-24 17:33N 46°30' W 001°47'0 0.0
2015-Jan-24 16:33N 46°30' W 001°47'0 0.0
2015-Jan-24 15:33N 46°30' W 001°47'0 0.0
2015-Jan-24 14:33N 46°30' W 001°47'0 0.0
2015-Jan-24 13:33N 46°30' W 001°47'0 0.0
2015-Jan-24 12:33N 46°30' W 001°47'0 0.0
2015-Jan-24 11:33N 46°30' W 001°47'0 0.0
2015-Jan-24 10:33N 46°30' W 001°47'0 0.0
2015-Jan-24 09:33N 46°30' W 001°47'0 0.0
2015-Jan-24 08:33N 46°30' W 001°47'0 0.0
2015-Jan-24 07:33N 46°30' W 001°47'0 0.0
2015-Jan-24 06:33N 46°30' W 001°47'0 0.0
2015-Jan-24 05:33N 46°30' W 001°47'0 0.0
2015-Jan-24 04:33N 46°30' W 001°47'0 0.0
2015-Jan-24 03:33N 46°30' W 001°47'0 0.0
2015-Jan-24 02:33N 46°30' W 001°47'0 0.0
2015-Jan-24 01:30N 46°30' W 001°47'0 0.0
2015-Jan-24 00:33N 46°30' W 001°47'0 0.0
2015-Jan-23 23:33N 46°30' W 001°47'0 0.0
2015-Jan-23 22:33N 46°30' W 001°47'0 0.0
2015-Jan-23 21:33N 46°30' W 001°47'0 0.0
2015-Jan-23 20:33N 46°30' W 001°47'0 0.0
2015-Jan-23 19:33N 46°30' W 001°47'0 0.0
2015-Jan-23 18:33N 46°30' W 001°47'0 0.0
2015-Jan-23 17:33N 46°30' W 001°47'0 0.0
2015-Jan-23 16:30N 46°30' W 001°47'0 0.0
2015-Jan-23 15:33N 46°30' W 001°47'0 0.0
2015-Jan-23 14:33N 46°30' W 001°47'0 0.0
2015-Jan-23 13:33N 46°30' W 001°47'0 0.0
2015-Jan-23 12:33N 46°30' W 001°47'0 0.0
2015-Jan-23 11:33N 46°30' W 001°47'0 0.0
2015-Jan-23 10:33N 46°30' W 001°47'0 0.0
2015-Jan-23 09:33N 46°30' W 001°47'0 0.0
2015-Jan-23 08:33N 46°30' W 001°47'0 0.0
2015-Jan-23 07:33N 46°30' W 001°47'0 0.0
2015-Jan-23 06:33N 46°30' W 001°47'0 0.0
2015-Jan-23 05:33N 46°30' W 001°47'0 0.0
2015-Jan-23 04:33N 46°30' W 001°47'0 0.0
2015-Jan-23 03:27N 46°30' W 001°47'0 0.0
2015-Jan-23 02:33N 46°30' W 001°47'0 0.0
2015-Jan-23 01:33N 46°30' W 001°47'0 0.0
2015-Jan-23 00:33N 46°30' W 001°47'0 0.0
2015-Jan-22 23:33N 46°30' W 001°47'0 0.0
2015-Jan-22 22:33N 46°30' W 001°47'0 0.0
2015-Jan-22 21:33N 46°30' W 001°47'0 0.0
2015-Jan-22 20:33N 46°30' W 001°47'0 0.0
2015-Jan-22 19:33N 46°30' W 001°47'0 0.0
2015-Jan-22 18:33N 46°30' W 001°47'0 0.0
2015-Jan-22 17:33N 46°30' W 001°47'0 0.0
2015-Jan-22 16:33N 46°30' W 001°47'0 0.0
2015-Jan-22 15:33N 46°30' W 001°47'0 0.0
2015-Jan-22 14:33N 46°30' W 001°47'0 0.0
2015-Jan-22 13:33N 46°30' W 001°47'0 0.0
2015-Jan-22 12:33N 46°30' W 001°47'0 0.0
2015-Jan-22 11:33N 46°30' W 001°47'0 0.0
2015-Jan-22 10:33N 46°30' W 001°47'0 0.0
2015-Jan-22 09:33N 46°30' W 001°47'0 0.0
2015-Jan-22 08:33N 46°30' W 001°47'0 0.0
2015-Jan-22 07:30N 46°30' W 001°47'0 0.0
2015-Jan-22 06:33N 46°30' W 001°47'0 0.0
2015-Jan-22 05:33N 46°30' W 001°47'0 0.0
2015-Jan-22 04:33N 46°30' W 001°47'0 0.0
2015-Jan-22 03:33N 46°30' W 001°47'0 0.0
2015-Jan-22 02:30N 46°30' W 001°47'0 0.0
2015-Jan-22 01:33N 46°30' W 001°47'0 0.0
2015-Jan-22 00:33N 46°30' W 001°47'0 0.0
2015-Jan-21 23:33N 46°30' W 001°47'0 0.0
2015-Jan-21 22:48N 46°30' W 001°47'0 0.0
2015-Jan-21 22:45N 46°30' W 001°47'0 0.0
2015-Jan-21 22:33N 46°30' W 001°47'0 0.0
2015-Jan-21 21:33N 46°30' W 001°47'0 0.0
2015-Jan-21 20:33N 46°30' W 001°47'0 0.0
2015-Jan-21 19:33N 46°30' W 001°47'0 0.0
2015-Jan-21 18:33N 46°30' W 001°47'0 0.0
2015-Jan-21 17:33N 46°30' W 001°47'8 0.2
2015-Jan-20 06:03N 46°22' W 001°43'5 9.5
2015-Jan-20 05:32N 46°27' W 001°46'  

Dump ship's entire track history